Huvudsida
METAR-TAF:

METAR-TAF

Flygplatser :

Andersen Air Force Base

Andersen, Guam, USA

latitud: 13-35N, longitud: 144-56E, höjd: 187 m

Aktuellt väderrapport

Denna rapport gjordes för 10 minuter sedan, klockan 09:56 UTC
Vind 8 kt från ost
Temperatur 27°C
Fuktighet 84%
Tryck 1013 hPa
Sikt: 16.1 km
Spridda moln på en höjd av 1400 ft
Brutna moln på en höjd av 18000 ft

METAR: PGUA 270956Z 09008KT 10SM SCT014 BKN180 27/24 A2992 RMK AO2A SLP122 T02710243 $

Tid: 20:06 (10:06 UTC)

Väderprognos

Denna rapport gjordes för 8 timmar och 6 minuter sedan, klockan 02:00 UTC
Prognos gäller från 27 kl. 02 UTC till 28 kl. 08 UTC
Vind 9 kt från ost
Sikt 10 km eller mer
Spridda moln på en höjd av 2000 ft
Temporärt
från 27 kl. 02 UTC till 27 kl. 08 UTC
Sikt: 8000 m
Brutna moln på en höjd av 2000 ft, Cumulonimbus.
lätta regnskurar, åska i närheten

TAF: PGUA 270200Z 2702/2808 09009KT 9999 SCT020 QNH2990INS TEMPO 2702/2708 8000 -SHRA VCTS BKN020CB TX30/2703Z TN25/2718Z

Aktuella väderrapporter och prognoser från 4000 flygplatser (METAR- och TAF-rapporter).

De tillgängliga stationerna syns som gula och röda prickar på kartan.

För musen över prickarna för att se namnen på stationerna.

Klicka sedan för att få väderrapporter och prognoser.

För att ändra kartan: Klicka på de gröna knapparna med ett svart kors på för att zooma in; den gröna knappen med ett streck på för att zooma ut; eller på de gröna pilarna för angränsande kartor.


METAR-TAF: